createdAt,value
2022-10-26T00:00:50.085Z,27.50
2022-10-26T00:01:50.211Z,18.70
2022-10-26T00:02:50.377Z,27.50
2022-10-26T00:03:50.080Z,29.60
2022-10-26T00:04:50.086Z,31.50
2022-10-26T00:05:50.050Z,32.80
2022-10-26T00:06:50.042Z,25.10
2022-10-26T00:07:50.098Z,18.60
2022-10-26T00:08:50.027Z,19.10
2022-10-26T00:09:50.030Z,23.90
2022-10-26T00:10:50.029Z,31.40
2022-10-26T00:11:49.995Z,40.10
2022-10-26T00:12:50.423Z,37.50
2022-10-26T00:13:49.974Z,26.30
2022-10-26T00:14:49.966Z,28.80
2022-10-26T00:15:50.025Z,42.40
2022-10-26T00:16:49.979Z,39.40
2022-10-26T00:17:50.278Z,45.60
2022-10-26T00:18:49.944Z,29.80
2022-10-26T00:19:50.014Z,41.40
2022-10-26T00:20:49.943Z,39.60
2022-10-26T00:21:49.937Z,30.40
2022-10-26T00:22:49.906Z,26.80
2022-10-26T00:23:49.906Z,21.00
2022-10-26T00:24:49.889Z,26.80
2022-10-26T00:25:49.877Z,23.30
2022-10-26T00:26:49.874Z,24.00
2022-10-26T00:27:50.110Z,22.20
2022-10-26T00:28:49.854Z,19.40
2022-10-26T00:29:49.847Z,24.70
2022-10-26T00:30:49.854Z,23.40
2022-10-26T00:31:49.824Z,21.20
2022-10-26T00:32:49.813Z,15.80
2022-10-26T00:33:49.835Z,17.70
2022-10-26T00:34:49.879Z,21.30
2022-10-26T00:35:49.797Z,35.10
2022-10-26T00:36:49.780Z,38.40
2022-10-26T00:37:50.134Z,37.50
2022-10-26T00:38:49.764Z,37.90
2022-10-26T00:39:49.776Z,21.20
2022-10-26T00:40:49.808Z,19.00
2022-10-26T00:41:49.748Z,18.70
2022-10-26T00:42:50.046Z,22.70
2022-10-26T00:43:49.730Z,22.60
2022-10-26T00:44:49.710Z,17.30
2022-10-26T00:45:49.718Z,19.40
2022-10-26T00:46:49.719Z,18.70
2022-10-26T00:47:49.694Z,16.50
2022-10-26T00:48:49.686Z,17.90
2022-10-26T00:49:49.666Z,17.60
2022-10-26T00:50:49.660Z,16.60
2022-10-26T00:51:49.677Z,20.20
2022-10-26T00:52:49.980Z,17.80
2022-10-26T00:53:49.663Z,18.30
2022-10-26T00:54:49.632Z,18.40
2022-10-26T00:55:49.622Z,20.60
2022-10-26T00:56:49.618Z,28.70
2022-10-26T00:57:49.661Z,19.10
2022-10-26T00:58:50.293Z,15.40
2022-10-26T00:59:49.597Z,20.60
2022-10-26T01:00:49.600Z,19.10
2022-10-26T01:01:49.609Z,18.70
2022-10-26T01:02:49.865Z,15.20
2022-10-26T01:03:49.635Z,13.70
2022-10-26T01:04:49.553Z,13.90
2022-10-26T01:05:49.542Z,14.30
2022-10-26T01:06:49.544Z,14.40
2022-10-26T01:07:49.651Z,14.10
2022-10-26T01:08:49.546Z,13.70
2022-10-26T01:09:49.528Z,12.90
2022-10-26T01:10:49.493Z,19.40
2022-10-26T01:11:49.490Z,27.60
2022-10-26T01:12:49.528Z,37.50
2022-10-26T01:13:49.478Z,27.30
2022-10-26T01:14:49.473Z,22.60
2022-10-26T01:15:49.480Z,18.50
2022-10-26T01:16:49.451Z,26.50
2022-10-26T01:17:49.622Z,22.60
2022-10-26T01:18:49.456Z,28.90
2022-10-26T01:19:49.422Z,31.90
2022-10-26T01:20:49.421Z,28.60
2022-10-26T01:21:49.401Z,29.60
2022-10-26T01:22:49.437Z,28.90
2022-10-26T01:23:49.391Z,32.00
2022-10-26T01:24:49.425Z,27.50
2022-10-26T01:25:49.379Z,32.10
2022-10-26T01:26:49.511Z,28.50
2022-10-26T01:27:49.628Z,28.10
2022-10-26T01:28:49.349Z,29.50
2022-10-26T01:29:49.335Z,29.00
2022-10-26T01:30:49.403Z,30.70
2022-10-26T01:31:49.355Z,33.20
2022-10-26T01:32:49.321Z,33.90
2022-10-26T01:33:49.303Z,37.70
2022-10-26T01:34:49.294Z,33.70
2022-10-26T01:35:49.289Z,37.00
2022-10-26T01:36:49.304Z,34.50
2022-10-26T01:37:49.502Z,35.40
2022-10-26T01:38:49.264Z,32.00
2022-10-26T01:39:49.264Z,32.60
2022-10-26T01:40:49.243Z,29.80
2022-10-26T01:41:49.239Z,34.70
2022-10-26T01:42:49.319Z,31.40
2022-10-26T01:43:49.217Z,32.30
2022-10-26T01:44:49.215Z,32.40
2022-10-26T01:45:49.196Z,36.10
2022-10-26T01:46:49.199Z,35.20
2022-10-26T01:47:49.454Z,36.00
2022-10-26T01:48:49.198Z,34.80
2022-10-26T01:49:49.175Z,36.10
2022-10-26T01:50:49.164Z,37.50
2022-10-26T01:51:49.151Z,32.90
2022-10-26T01:52:49.145Z,28.20
2022-10-26T01:53:49.155Z,26.90
2022-10-26T01:54:49.158Z,32.50
2022-10-26T01:55:49.186Z,26.70
2022-10-26T01:56:49.117Z,25.40
2022-10-26T01:57:49.234Z,30.10
2022-10-26T01:58:49.096Z,34.40
2022-10-26T01:59:49.100Z,37.90
2022-10-26T02:00:49.108Z,34.20
2022-10-26T02:01:49.153Z,37.50
2022-10-26T02:02:49.061Z,34.90
2022-10-26T02:03:49.168Z,35.90
2022-10-26T02:04:49.068Z,37.90
2022-10-26T02:05:49.056Z,33.80
2022-10-26T02:06:49.058Z,30.90
2022-10-26T02:07:49.206Z,31.40
2022-10-26T02:08:49.008Z,31.80
2022-10-26T02:09:49.088Z,36.10
2022-10-26T02:10:49.022Z,35.20
2022-10-26T02:11:48.987Z,29.50
2022-10-26T02:12:48.985Z,33.70
2022-10-26T02:13:48.993Z,33.80
2022-10-26T02:14:48.961Z,33.10
2022-10-26T02:15:48.950Z,31.10
2022-10-26T02:16:48.961Z,33.30
2022-10-26T02:17:49.259Z,32.70
2022-10-26T02:18:48.914Z,32.90
2022-10-26T02:19:48.910Z,33.40
2022-10-26T02:20:48.895Z,36.00
2022-10-26T02:21:48.890Z,34.50
2022-10-26T02:22:48.908Z,33.90
2022-10-26T02:23:48.874Z,32.50
2022-10-26T02:24:48.869Z,33.20
2022-10-26T02:25:48.893Z,30.60
2022-10-26T02:26:48.857Z,32.00
2022-10-26T02:27:49.079Z,31.10
2022-10-26T02:28:48.836Z,30.80
2022-10-26T02:29:48.836Z,32.40
2022-10-26T02:30:49.549Z,30.30
2022-10-26T02:31:48.818Z,34.70
2022-10-26T02:32:48.810Z,30.20
2022-10-26T02:34:48.827Z,29.90
2022-10-26T02:35:48.863Z,31.10
2022-10-26T02:36:48.822Z,27.40
2022-10-26T02:37:49.042Z,31.60
2022-10-26T02:38:48.756Z,30.20
2022-10-26T02:39:48.749Z,27.80
2022-10-26T02:40:48.744Z,27.60
2022-10-26T02:41:48.747Z,27.30
2022-10-26T02:42:48.736Z,26.70
2022-10-26T02:43:48.719Z,27.60
2022-10-26T02:44:48.701Z,29.30
2022-10-26T02:45:48.693Z,33.00
2022-10-26T02:46:48.676Z,32.50
2022-10-26T02:47:49.139Z,34.80
2022-10-26T02:48:48.683Z,33.80
2022-10-26T02:49:48.661Z,30.20
2022-10-26T02:50:48.662Z,30.40
2022-10-26T02:52:48.958Z,28.10
2022-10-26T02:53:48.632Z,25.90
2022-10-26T02:54:48.639Z,21.90
2022-10-26T02:55:48.607Z,25.80
2022-10-26T02:56:48.595Z,26.10
2022-10-26T02:57:48.579Z,27.50
2022-10-26T02:58:48.580Z,31.00
2022-10-26T02:59:48.575Z,27.00
2022-10-26T03:00:48.586Z,22.50
2022-10-26T03:01:48.634Z,26.50
2022-10-26T03:02:48.792Z,22.40
2022-10-26T03:03:48.635Z,19.00
2022-10-26T03:04:48.540Z,16.60
2022-10-26T03:05:48.563Z,20.70
2022-10-26T03:06:48.518Z,20.80
2022-10-26T03:07:48.543Z,18.80
2022-10-26T03:08:48.500Z,15.50
2022-10-26T03:09:48.496Z,17.80
2022-10-26T03:10:48.493Z,14.40
2022-10-26T03:11:48.504Z,13.30
2022-10-26T03:12:48.763Z,18.90
2022-10-26T03:13:48.449Z,14.90
2022-10-26T03:14:48.438Z,14.40
2022-10-26T03:15:48.432Z,15.40
2022-10-26T03:16:48.512Z,15.60
2022-10-26T03:17:48.710Z,15.70
2022-10-26T03:18:48.424Z,20.00
2022-10-26T03:19:48.401Z,18.90
2022-10-26T03:20:48.398Z,24.20
2022-10-26T03:21:48.392Z,22.10
2022-10-26T03:22:48.384Z,21.40
2022-10-26T03:23:48.393Z,25.90
2022-10-26T03:24:48.367Z,24.50
2022-10-26T03:25:48.359Z,26.20
2022-10-26T03:26:48.346Z,29.80
2022-10-26T03:27:48.619Z,22.00
2022-10-26T03:28:48.331Z,22.30
2022-10-26T03:29:48.332Z,27.40
2022-10-26T03:30:48.310Z,25.90
2022-10-26T03:31:48.302Z,23.20
2022-10-26T03:32:48.293Z,22.80
2022-10-26T03:33:48.282Z,25.20
2022-10-26T03:34:48.283Z,23.30
2022-10-26T03:35:48.283Z,23.60
2022-10-26T03:36:48.301Z,24.10
2022-10-26T03:37:48.530Z,23.50
2022-10-26T03:38:48.241Z,21.80
2022-10-26T03:39:48.229Z,23.40
2022-10-26T03:40:48.265Z,21.30
2022-10-26T03:41:48.267Z,16.80
2022-10-26T03:42:48.580Z,16.80
2022-10-26T03:43:48.198Z,17.70
2022-10-26T03:44:48.204Z,17.40
2022-10-26T03:45:48.198Z,16.60
2022-10-26T03:46:48.165Z,18.80
2022-10-26T03:47:48.155Z,18.60
2022-10-26T03:48:48.161Z,17.70
2022-10-26T03:49:48.139Z,19.30
2022-10-26T03:50:48.139Z,18.60
2022-10-26T03:51:48.148Z,19.70
2022-10-26T03:52:48.391Z,20.50
2022-10-26T03:53:48.126Z,20.40
2022-10-26T03:54:48.104Z,20.30
2022-10-26T03:55:48.096Z,17.40
2022-10-26T03:56:52.575Z,22.20
2022-10-26T03:57:49.107Z,22.10
2022-10-26T03:58:48.065Z,20.50
2022-10-26T03:59:48.065Z,20.10
2022-10-26T04:00:48.048Z,19.50
2022-10-26T04:01:48.117Z,18.70
2022-10-26T04:02:48.609Z,18.90
2022-10-26T04:03:48.091Z,13.80
2022-10-26T04:04:48.023Z,17.10
2022-10-26T04:05:48.012Z,16.70
2022-10-26T04:06:48.048Z,21.50
2022-10-26T04:07:48.346Z,22.50
2022-10-26T04:08:48.013Z,21.50
2022-10-26T04:09:47.972Z,21.10
2022-10-26T04:10:47.971Z,16.90
2022-10-26T04:11:48.008Z,19.20
2022-10-26T04:12:48.039Z,19.60
2022-10-26T04:13:47.937Z,18.20
2022-10-26T04:14:47.933Z,16.00
2022-10-26T04:15:47.919Z,15.10
2022-10-26T04:16:47.923Z,15.80
2022-10-26T04:17:48.061Z,17.10
2022-10-26T04:18:47.934Z,16.20
2022-10-26T04:19:47.900Z,17.00
2022-10-26T04:20:47.894Z,16.00
2022-10-26T04:21:47.877Z,17.70
2022-10-26T04:22:47.872Z,15.40
2022-10-26T04:23:47.867Z,16.30
2022-10-26T04:24:47.890Z,15.80
2022-10-26T04:25:47.880Z,15.30
2022-10-26T04:26:47.832Z,16.40
2022-10-26T04:27:48.227Z,15.50
2022-10-26T04:28:47.834Z,15.80
2022-10-26T04:29:47.833Z,17.70
2022-10-26T04:30:47.828Z,15.80
2022-10-26T04:31:47.801Z,18.20
2022-10-26T04:32:47.941Z,15.80
2022-10-26T04:33:47.784Z,15.40
2022-10-26T04:34:47.778Z,15.30
2022-10-26T04:35:47.794Z,14.20
2022-10-26T04:36:47.761Z,16.30
2022-10-26T04:37:47.748Z,18.70
2022-10-26T04:38:47.751Z,18.80
2022-10-26T04:39:47.735Z,17.30
2022-10-26T04:40:47.718Z,16.50
2022-10-26T04:41:47.829Z,17.40
2022-10-26T04:42:48.112Z,16.90
2022-10-26T04:43:47.706Z,17.00
2022-10-26T04:44:47.691Z,16.50
2022-10-26T04:45:47.696Z,16.70
2022-10-26T04:46:47.679Z,14.50
2022-10-26T04:47:47.685Z,16.20
2022-10-26T04:48:47.663Z,17.60
2022-10-26T04:49:47.649Z,17.10
2022-10-26T04:50:47.641Z,16.10
2022-10-26T04:51:47.643Z,18.70
2022-10-26T04:52:48.047Z,19.10
2022-10-26T04:53:47.644Z,18.00
2022-10-26T04:54:47.628Z,18.80
2022-10-26T04:55:47.599Z,18.70
2022-10-26T04:56:47.600Z,18.50
2022-10-26T04:57:47.926Z,19.00
2022-10-26T04:58:47.568Z,17.50
2022-10-26T04:59:47.597Z,15.80
2022-10-26T05:00:47.561Z,14.70
2022-10-26T05:01:47.731Z,18.30
2022-10-26T05:02:47.552Z,16.40
2022-10-26T05:03:47.529Z,16.40
2022-10-26T05:04:47.541Z,15.80
2022-10-26T05:05:47.534Z,15.80
2022-10-26T05:06:47.507Z,14.50
2022-10-26T05:07:47.817Z,16.50
2022-10-26T05:08:47.492Z,14.60
2022-10-26T05:09:47.475Z,15.30
2022-10-26T05:10:47.532Z,14.10
2022-10-26T05:11:47.517Z,15.20
2022-10-26T05:12:47.455Z,15.80
2022-10-26T05:13:47.545Z,14.70
2022-10-26T05:14:47.435Z,16.20
2022-10-26T05:15:47.442Z,13.50
2022-10-26T05:16:47.418Z,14.00
2022-10-26T05:17:47.733Z,14.40
2022-10-26T05:18:47.404Z,17.10
2022-10-26T05:19:47.425Z,16.20
2022-10-26T05:20:47.395Z,16.40
2022-10-26T05:21:47.381Z,13.90
2022-10-26T05:22:47.777Z,15.00
2022-10-26T05:23:47.354Z,14.00
2022-10-26T05:24:47.354Z,14.10
2022-10-26T05:25:47.337Z,12.80
2022-10-26T05:26:47.327Z,13.70
2022-10-26T05:27:47.322Z,12.80
2022-10-26T05:28:47.348Z,13.00
2022-10-26T05:29:47.321Z,12.40
2022-10-26T05:30:47.312Z,12.40
2022-10-26T05:31:47.312Z,11.90
2022-10-26T05:32:47.666Z,12.00
2022-10-26T05:33:47.326Z,12.80
2022-10-26T05:34:47.271Z,13.20
2022-10-26T05:35:47.261Z,13.50
2022-10-26T05:36:47.267Z,13.00
2022-10-26T05:37:47.238Z,12.40
2022-10-26T05:38:47.242Z,13.00
2022-10-26T05:39:47.260Z,13.60
2022-10-26T05:40:47.236Z,12.30
2022-10-26T05:41:47.213Z,12.80
2022-10-26T05:42:47.597Z,13.00
2022-10-26T05:43:47.195Z,12.30
2022-10-26T05:44:47.198Z,12.30
2022-10-26T05:45:47.196Z,14.10
2022-10-26T05:46:47.201Z,13.80
2022-10-26T05:47:47.412Z,12.80
2022-10-26T05:48:47.158Z,14.30
2022-10-26T05:49:47.146Z,14.40
2022-10-26T05:50:47.169Z,14.70
2022-10-26T05:51:47.132Z,15.10
2022-10-26T05:52:47.121Z,15.60
2022-10-26T05:53:47.109Z,14.60
2022-10-26T05:54:47.166Z,16.40
2022-10-26T05:55:47.088Z,16.40
2022-10-26T05:56:47.091Z,16.90
2022-10-26T05:57:47.472Z,18.00
2022-10-26T05:58:47.071Z,18.30
2022-10-26T05:59:47.068Z,17.90
2022-10-26T06:00:47.079Z,17.70
2022-10-26T06:01:47.165Z,18.40
2022-10-26T06:02:50.137Z,18.80
2022-10-26T06:03:47.036Z,18.70
2022-10-26T06:04:47.035Z,16.20
2022-10-26T06:05:47.010Z,17.90
2022-10-26T06:06:47.026Z,17.90
2022-10-26T06:07:47.327Z,17.20
2022-10-26T06:08:47.047Z,15.20
2022-10-26T06:09:46.991Z,15.10
2022-10-26T06:10:46.975Z,16.40
2022-10-26T06:11:47.087Z,16.50
2022-10-26T06:12:47.356Z,15.80
2022-10-26T06:13:46.953Z,16.10
2022-10-26T06:14:46.993Z,16.20
2022-10-26T06:15:46.926Z,16.30
2022-10-26T06:16:46.910Z,17.10
2022-10-26T06:17:46.908Z,14.80
2022-10-26T06:18:46.941Z,17.50
2022-10-26T06:19:46.892Z,17.60
2022-10-26T06:20:46.905Z,17.00
2022-10-26T06:21:46.874Z,17.80
2022-10-26T06:22:47.085Z,20.80
2022-10-26T06:23:46.910Z,19.80
2022-10-26T06:24:46.842Z,18.90
2022-10-26T06:25:46.850Z,17.90
2022-10-26T06:26:46.830Z,17.10
2022-10-26T06:27:46.831Z,19.80
2022-10-26T06:28:49.915Z,20.20
2022-10-26T06:29:46.883Z,19.70
2022-10-26T06:30:46.799Z,18.90
2022-10-26T06:31:46.804Z,18.00
2022-10-26T06:32:46.976Z,16.90
2022-10-26T06:33:46.843Z,17.50
2022-10-26T06:34:46.767Z,17.10
2022-10-26T06:35:46.811Z,17.50
2022-10-26T06:36:46.806Z,16.70
2022-10-26T06:37:46.937Z,17.60
2022-10-26T06:38:46.779Z,16.60
2022-10-26T06:39:48.855Z,18.30
2022-10-26T06:40:46.763Z,17.20
2022-10-26T06:41:46.713Z,14.90
2022-10-26T06:42:46.711Z,15.00
2022-10-26T06:43:46.737Z,13.80
2022-10-26T06:44:46.687Z,14.10
2022-10-26T06:45:46.679Z,16.30
2022-10-26T06:46:46.673Z,13.80
2022-10-26T06:47:46.859Z,15.10
2022-10-26T06:48:46.680Z,15.30
2022-10-26T06:49:46.635Z,16.70
2022-10-26T06:50:46.656Z,16.10
2022-10-26T06:51:46.628Z,17.10
2022-10-26T06:52:46.639Z,17.00
2022-10-26T06:53:46.614Z,15.70
2022-10-26T06:54:46.627Z,17.40
2022-10-26T06:55:46.600Z,13.90
2022-10-26T06:56:46.591Z,14.10
2022-10-26T06:57:46.871Z,13.90
2022-10-26T06:58:46.571Z,13.40
2022-10-26T06:59:46.566Z,15.60
2022-10-26T07:00:46.560Z,17.40
2022-10-26T07:01:46.720Z,17.60
2022-10-26T07:02:46.719Z,14.70
2022-10-26T07:03:46.590Z,13.80
2022-10-26T07:04:46.745Z,14.20
2022-10-26T07:05:46.560Z,14.40
2022-10-26T07:06:46.991Z,14.80
2022-10-26T07:07:46.718Z,13.60
2022-10-26T07:08:46.476Z,14.00
2022-10-26T07:09:46.472Z,14.80
2022-10-26T07:10:49.901Z,13.30
2022-10-26T07:11:46.472Z,13.00
2022-10-26T07:12:46.730Z,14.10
2022-10-26T07:13:46.464Z,14.10
2022-10-26T07:14:46.469Z,13.20
2022-10-26T07:15:46.415Z,14.70
2022-10-26T07:16:46.607Z,14.50
2022-10-26T07:17:46.540Z,14.40
2022-10-26T07:18:46.525Z,15.50
2022-10-26T07:19:46.395Z,16.40
2022-10-26T07:20:46.386Z,16.50
2022-10-26T07:21:46.782Z,14.70
2022-10-26T07:22:46.434Z,13.90
2022-10-26T07:23:46.356Z,12.90
2022-10-26T07:24:46.442Z,13.80
2022-10-26T07:25:46.339Z,14.70
2022-10-26T07:26:46.335Z,14.80
2022-10-26T07:27:46.508Z,13.90
2022-10-26T07:28:46.310Z,13.30
2022-10-26T07:29:46.356Z,13.20
2022-10-26T07:30:46.288Z,12.00
2022-10-26T07:31:46.336Z,11.60
2022-10-26T07:32:46.657Z,11.10
2022-10-26T07:33:46.261Z,10.60
2022-10-26T07:34:46.258Z,9.20
2022-10-26T07:35:46.342Z,9.90
2022-10-26T07:36:47.810Z,10.20
2022-10-26T07:37:46.308Z,9.10
2022-10-26T07:38:46.232Z,9.40
2022-10-26T07:39:46.224Z,10.00
2022-10-26T07:40:46.216Z,9.80
2022-10-26T07:41:46.229Z,10.10
2022-10-26T07:42:47.772Z,9.50
2022-10-26T07:43:46.190Z,10.10
2022-10-26T07:44:46.191Z,10.60
2022-10-26T07:45:47.217Z,11.70
2022-10-26T07:46:46.207Z,12.40
2022-10-26T07:47:46.147Z,14.10
2022-10-26T07:48:46.146Z,12.20
2022-10-26T07:49:46.135Z,11.90
2022-10-26T07:50:46.162Z,11.40
2022-10-26T07:51:46.123Z,10.80
2022-10-26T07:52:46.518Z,11.30
2022-10-26T07:53:46.112Z,11.80
2022-10-26T07:54:46.181Z,12.40
2022-10-26T07:55:46.086Z,13.10
2022-10-26T07:56:46.103Z,13.50
2022-10-26T07:57:47.592Z,13.40
2022-10-26T07:58:46.077Z,13.80
2022-10-26T07:59:46.054Z,14.10
2022-10-26T08:00:46.074Z,13.60
2022-10-26T08:01:46.138Z,13.40
2022-10-26T08:02:46.028Z,13.20
2022-10-26T08:03:46.018Z,12.80
2022-10-26T08:04:46.014Z,14.10
2022-10-26T08:05:46.002Z,13.70
2022-10-26T08:06:46.043Z,14.00
2022-10-26T08:07:46.128Z,13.30
2022-10-26T08:08:47.504Z,13.50
2022-10-26T08:09:45.974Z,12.70
2022-10-26T08:10:45.964Z,13.70
2022-10-26T08:11:45.967Z,14.10
2022-10-26T08:12:45.957Z,13.40
2022-10-26T08:13:46.008Z,13.70
2022-10-26T08:14:45.940Z,14.00
2022-10-26T08:15:45.918Z,15.50
2022-10-26T08:16:45.964Z,15.00
2022-10-26T08:17:45.961Z,14.50
2022-10-26T08:18:45.901Z,13.60
2022-10-26T08:19:45.911Z,14.40
2022-10-26T08:20:45.924Z,14.60
2022-10-26T08:21:45.906Z,15.20
2022-10-26T08:22:45.864Z,14.50
2022-10-26T08:23:45.866Z,13.70
2022-10-26T08:24:45.848Z,12.90
2022-10-26T08:25:45.844Z,13.40
2022-10-26T08:26:45.854Z,14.20
2022-10-26T08:27:45.900Z,13.80
2022-10-26T08:28:45.814Z,13.30
2022-10-26T08:29:45.829Z,13.80
2022-10-26T08:30:45.812Z,13.30
2022-10-26T08:31:45.798Z,13.00
2022-10-26T08:32:45.917Z,13.00
2022-10-26T08:33:45.792Z,13.20
2022-10-26T08:34:45.784Z,13.70
2022-10-26T08:35:45.765Z,13.40
2022-10-26T08:36:45.758Z,14.80
2022-10-26T08:37:45.741Z,14.20
2022-10-26T08:38:45.783Z,15.10
2022-10-26T08:39:49.109Z,14.30
2022-10-26T08:40:47.023Z,14.50
2022-10-26T08:41:45.703Z,15.20
2022-10-26T08:42:45.731Z,16.40
2022-10-26T08:43:45.696Z,14.80
2022-10-26T08:44:45.679Z,14.70
2022-10-26T08:45:45.675Z,15.70
2022-10-26T08:46:45.674Z,16.60
2022-10-26T08:47:45.709Z,16.80
2022-10-26T08:48:45.655Z,17.70
2022-10-26T08:49:45.645Z,17.60
2022-10-26T08:50:45.648Z,17.30
2022-10-26T08:51:45.637Z,18.50
2022-10-26T08:52:45.622Z,20.00
2022-10-26T08:53:45.640Z,19.60
2022-10-26T08:54:45.634Z,19.10
2022-10-26T08:55:45.610Z,18.00
2022-10-26T08:56:48.579Z,19.50
2022-10-26T08:57:46.851Z,20.90
2022-10-26T08:58:45.565Z,19.90
2022-10-26T08:59:45.559Z,16.30
2022-10-26T09:00:45.682Z,17.40
2022-10-26T09:01:45.824Z,17.10
2022-10-26T09:02:45.544Z,16.40
2022-10-26T09:03:45.604Z,17.20
2022-10-26T09:04:45.526Z,16.70
2022-10-26T09:05:45.525Z,18.50
2022-10-26T09:06:45.516Z,16.80
2022-10-26T09:07:45.558Z,17.10
2022-10-26T09:08:45.750Z,18.30
2022-10-26T09:09:45.512Z,18.40
2022-10-26T09:10:45.476Z,18.20
2022-10-26T09:11:45.470Z,16.70
2022-10-26T09:12:45.457Z,16.80
2022-10-26T09:13:46.363Z,17.70
2022-10-26T09:14:45.440Z,17.10
2022-10-26T09:15:45.448Z,17.80
2022-10-26T09:16:45.558Z,15.40
2022-10-26T09:17:46.423Z,13.30
2022-10-26T09:19:45.407Z,15.30
2022-10-26T09:20:45.414Z,15.70
2022-10-26T09:21:45.391Z,15.70
2022-10-26T09:22:45.405Z,14.70
2022-10-26T09:23:45.380Z,16.50
2022-10-26T09:24:45.469Z,17.10
2022-10-26T09:25:45.354Z,14.40
2022-10-26T09:26:45.433Z,14.30
2022-10-26T09:27:45.346Z,15.40
2022-10-26T09:28:45.341Z,16.70
2022-10-26T09:29:45.359Z,17.10
2022-10-26T09:30:45.352Z,18.90
2022-10-26T09:31:45.373Z,18.60
2022-10-26T09:32:45.314Z,18.60
2022-10-26T09:33:45.288Z,21.10
2022-10-26T09:34:46.044Z,18.30
2022-10-26T09:35:45.835Z,16.40
2022-10-26T09:36:45.276Z,16.20
2022-10-26T09:37:45.266Z,17.90
2022-10-26T09:38:45.386Z,18.60
2022-10-26T09:39:45.270Z,15.80
2022-10-26T09:40:45.229Z,15.00
2022-10-26T09:41:45.233Z,16.80
2022-10-26T09:42:45.216Z,16.60
2022-10-26T09:43:45.306Z,16.00
2022-10-26T09:44:45.225Z,13.30
2022-10-26T09:45:45.200Z,13.50
2022-10-26T09:46:45.197Z,13.50
2022-10-26T09:47:45.190Z,14.50
2022-10-26T09:48:45.165Z,14.90
2022-10-26T09:49:45.177Z,14.00
2022-10-26T09:50:45.179Z,12.90
2022-10-26T09:51:45.140Z,12.80
2022-10-26T09:52:45.144Z,12.40
2022-10-26T09:53:45.160Z,12.30
2022-10-26T09:54:45.112Z,11.30
2022-10-26T09:55:45.129Z,12.50
2022-10-26T09:56:45.112Z,12.60
2022-10-26T09:57:45.110Z,13.30
2022-10-26T09:58:45.080Z,14.40
2022-10-26T09:59:45.142Z,12.00
2022-10-26T10:00:45.098Z,11.60
2022-10-26T10:01:45.168Z,12.10
2022-10-26T10:02:45.151Z,12.50
2022-10-26T10:03:45.064Z,11.30
2022-10-26T10:04:45.026Z,10.40
2022-10-26T10:05:51.272Z,11.10
2022-10-26T10:06:46.052Z,10.30
2022-10-26T10:07:45.000Z,11.70
2022-10-26T10:08:45.020Z,11.60
2022-10-26T10:09:44.985Z,11.50
2022-10-26T10:10:44.972Z,12.00
2022-10-26T10:11:45.067Z,11.30
2022-10-26T10:12:44.989Z,10.80
2022-10-26T10:13:44.961Z,10.50
2022-10-26T10:14:44.950Z,11.20
2022-10-26T10:15:44.944Z,12.20
2022-10-26T10:16:45.020Z,11.20
2022-10-26T10:17:46.482Z,10.90
2022-10-26T10:18:44.927Z,11.20
2022-10-26T10:19:44.893Z,10.70
2022-10-26T10:20:44.880Z,11.00
2022-10-26T10:21:45.369Z,10.80
2022-10-26T10:22:44.877Z,10.30
2022-10-26T10:23:44.856Z,10.30
2022-10-26T10:24:44.894Z,11.20
2022-10-26T10:25:44.878Z,9.10
2022-10-26T10:26:44.834Z,9.30
2022-10-26T10:27:44.849Z,9.30
2022-10-26T10:28:44.868Z,9.80
2022-10-26T10:29:44.849Z,9.10
2022-10-26T10:30:44.830Z,10.50
2022-10-26T10:31:44.839Z,9.40
2022-10-26T10:32:44.773Z,9.50
2022-10-26T10:33:44.848Z,9.40
2022-10-26T10:34:44.789Z,8.70
2022-10-26T10:35:44.749Z,9.80
2022-10-26T10:36:44.790Z,8.40
2022-10-26T10:37:44.808Z,8.20
2022-10-26T10:38:44.726Z,7.90
2022-10-26T10:39:44.709Z,8.50
2022-10-26T10:40:44.723Z,7.80
2022-10-26T10:41:44.701Z,8.50
2022-10-26T10:42:44.699Z,7.40
2022-10-26T10:43:44.798Z,7.00
2022-10-26T10:44:44.687Z,6.60
2022-10-26T10:45:44.752Z,7.40
2022-10-26T10:46:44.700Z,7.20
2022-10-26T10:47:44.670Z,6.40
2022-10-26T10:48:44.659Z,6.10
2022-10-26T10:49:44.678Z,6.00
2022-10-26T10:50:44.654Z,6.00
2022-10-26T10:51:44.676Z,6.30
2022-10-26T10:52:44.617Z,5.90
2022-10-26T10:53:44.599Z,5.70
2022-10-26T10:54:44.662Z,5.80
2022-10-26T10:55:44.650Z,5.00
2022-10-26T10:56:44.585Z,4.90
2022-10-26T10:57:44.572Z,5.00
2022-10-26T10:58:44.553Z,4.50
2022-10-26T10:59:44.622Z,4.60
2022-10-26T11:00:44.577Z,3.90
2022-10-26T11:01:44.682Z,4.10
2022-10-26T11:02:44.607Z,3.90
2022-10-26T11:03:44.518Z,3.50
2022-10-26T11:04:44.578Z,3.60
2022-10-26T11:05:44.499Z,3.70
2022-10-26T11:06:44.495Z,3.60
2022-10-26T11:07:46.517Z,3.50
2022-10-26T11:08:47.074Z,3.10
2022-10-26T11:09:45.905Z,3.60
2022-10-26T11:10:45.659Z,2.90
2022-10-26T11:11:46.828Z,3.00
2022-10-26T11:12:44.458Z,3.20
2022-10-26T11:13:44.635Z,3.20
2022-10-26T11:14:46.403Z,3.20
2022-10-26T11:15:44.428Z,3.10
2022-10-26T11:16:44.535Z,3.70
2022-10-26T11:17:44.411Z,4.10
2022-10-26T11:18:44.416Z,3.80
2022-10-26T11:19:44.830Z,4.20
2022-10-26T11:20:44.551Z,3.70
2022-10-26T11:21:44.390Z,3.50
2022-10-26T11:22:44.452Z,4.00
2022-10-26T11:23:44.360Z,3.70
2022-10-26T11:24:44.363Z,3.90
2022-10-26T11:25:44.489Z,4.00
2022-10-26T11:26:46.167Z,4.10
2022-10-26T11:27:44.361Z,3.90
2022-10-26T11:28:44.333Z,3.50
2022-10-26T11:29:48.352Z,3.60
2022-10-26T11:30:44.343Z,3.70
2022-10-26T11:31:44.308Z,3.30
2022-10-26T11:35:51.018Z,3.00
2022-10-26T11:36:50.992Z,3.10
2022-10-26T11:37:51.004Z,3.10
2022-10-26T11:38:57.115Z,2.90
2022-10-26T11:39:52.031Z,2.80
2022-10-26T11:40:50.939Z,2.70
2022-10-26T11:41:50.930Z,2.60
2022-10-26T11:42:51.267Z,2.70
2022-10-26T11:43:50.915Z,2.60
2022-10-26T11:44:53.007Z,2.80
2022-10-26T11:45:50.958Z,2.70
2022-10-26T11:46:50.909Z,2.40
2022-10-26T11:47:51.199Z,2.50
2022-10-26T11:48:50.973Z,2.60
2022-10-26T11:49:50.872Z,2.90
2022-10-26T11:50:50.860Z,2.50
2022-10-26T11:51:50.900Z,2.40
2022-10-26T11:52:51.148Z,2.40
2022-10-26T11:53:50.836Z,2.90
2022-10-26T11:54:50.919Z,2.60
2022-10-26T11:55:50.849Z,2.60
2022-10-26T11:56:50.840Z,2.70
2022-10-26T11:57:51.618Z,2.80
2022-10-26T11:58:50.844Z,2.70
2022-10-26T11:59:50.782Z,2.50
2022-10-26T12:00:50.815Z,2.70
2022-10-26T12:01:50.831Z,2.40
2022-10-26T12:02:50.788Z,2.40
2022-10-26T12:03:50.783Z,2.40
2022-10-26T12:04:50.850Z,2.50
2022-10-26T12:05:50.763Z,2.60
2022-10-26T12:06:50.730Z,2.60
2022-10-26T12:07:50.960Z,2.50
2022-10-26T12:08:50.738Z,2.60
2022-10-26T12:09:50.725Z,2.40
2022-10-26T12:10:51.959Z,2.70
2022-10-26T12:13:08.815Z,2.30
2022-10-26T12:14:08.838Z,2.30
2022-10-26T12:15:08.789Z,2.50
2022-10-26T12:16:09.606Z,2.50
2022-10-26T12:17:08.780Z,2.20
2022-10-26T12:18:08.762Z,2.30
2022-10-26T12:19:08.815Z,2.70
2022-10-26T12:20:08.787Z,2.10
2022-10-26T12:21:08.758Z,2.50
2022-10-26T12:22:08.744Z,2.10
2022-10-26T12:23:08.766Z,2.40
2022-10-26T12:24:09.216Z,2.20
2022-10-26T12:25:13.912Z,2.30
2022-10-26T12:26:09.714Z,2.40
2022-10-26T12:27:08.721Z,2.20
2022-10-26T12:28:08.680Z,2.30
2022-10-26T12:29:08.674Z,2.20
2022-10-26T12:30:08.718Z,2.10
2022-10-26T12:31:08.687Z,2.30
2022-10-26T12:32:08.654Z,2.10
2022-10-26T12:33:08.673Z,2.20
2022-10-26T12:34:08.638Z,2.40
2022-10-26T12:35:08.637Z,2.30
2022-10-26T12:36:08.893Z,2.50
2022-10-26T12:37:09.116Z,2.20
2022-10-26T12:38:08.630Z,2.20
2022-10-26T12:39:08.613Z,2.10
2022-10-26T12:40:08.631Z,2.60
2022-10-26T12:41:08.623Z,2.30
2022-10-26T12:42:08.577Z,2.40
2022-10-26T12:43:08.635Z,2.40
2022-10-26T12:44:09.997Z,2.30
2022-10-26T12:45:08.569Z,2.10
2022-10-26T12:46:08.548Z,2.20
2022-10-26T12:47:08.914Z,2.50
2022-10-26T12:48:15.732Z,2.00
2022-10-26T12:49:09.527Z,2.10
2022-10-26T12:50:08.596Z,2.10
2022-10-26T12:51:08.560Z,2.00
2022-10-26T12:52:08.504Z,2.20
2022-10-26T12:53:08.493Z,2.20
2022-10-26T12:54:08.494Z,2.40
2022-10-26T12:55:08.639Z,2.20
2022-10-26T12:56:08.545Z,2.10
2022-10-26T12:57:08.582Z,2.00
2022-10-26T12:58:08.473Z,2.00
2022-10-26T12:59:08.535Z,2.10
2022-10-26T13:00:08.517Z,2.00
2022-10-26T13:01:08.483Z,2.40
2022-10-26T13:02:08.478Z,2.30
2022-10-26T13:03:08.451Z,2.10
2022-10-26T13:04:08.420Z,2.20
2022-10-26T13:05:08.400Z,2.10